KELN/ELN METAR and TAF weather

Enter ICAO airport designator
Station Type Date Time Source
KELN METAR 2018/12/10 19:39 UTC NOAA

KELN 101939Z AUTO 00000KT 3/4SM BR OVC002 M02/M03 A3024 RMK AO2 T10171033


Station Type Date Time Source
KELN Decoded METAR 2018/12/10 19:39 UTC NOAA

ELLENSBURG BOWERS FIELD, WA, United States (KELN) 47-02N 120-32W 519M
Dec 10, 2018 - 02:39 PM EST / 2018.12.10 1939 UTC
Wind: Calm:0
Visibility: 3/4 mile(s):0
Sky conditions: overcast
Weather: mist
Temperature: 28.9 F (-1.7 C)
Dew Point: 26.1 F (-3.3 C)
Relative Humidity: 88%
Pressure (altimeter): 30.24 in. Hg (1024 hPa)
ob: KELN 101939Z AUTO 00000KT 3/4SM BR OVC002 M02/M03 A3024 RMK AO2 T10171033
cycle: 19

Station Type Date Time Source
KELN TAF UTC NOAA

Error!


Example: see airport list